sensor_id;sensor_type;location;lat;lon;timestamp;P1;durP1;ratioP1;P2;durP2;ratioP2
6203;SDS011;3135;42.602;23.468;2022-07-23T00:02:23;5.80;;;3.60;;
6203;SDS011;3135;42.602;23.468;2022-07-23T00:04:49;6.60;;;3.30;;
6203;SDS011;3135;42.602;23.468;2022-07-23T00:07:14;5.13;;;3.90;;
6203;SDS011;3135;42.602;23.468;2022-07-23T00:09:39;5.20;;;3.53;;
6203;SDS011;3135;42.602;23.468;2022-07-23T00:12:05;5.53;;;3.57;;
6203;SDS011;3135;42.602;23.468;2022-07-23T00:14:31;6.78;;;3.80;;
6203;SDS011;3135;42.602;23.468;2022-07-23T00:16:56;5.55;;;3.90;;
6203;SDS011;3135;42.602;23.468;2022-07-23T00:19:22;4.10;;;3.70;;
6203;SDS011;3135;42.602;23.468;2022-07-23T00:21:47;4.30;;;3.50;;
6203;SDS011;3135;42.602;23.468;2022-07-23T00:24:13;5.43;;;4.00;;
6203;SDS011;3135;42.602;23.468;2022-07-23T00:26:38;4.20;;;3.67;;
6203;SDS011;3135;42.602;23.468;2022-07-23T00:29:03;7.03;;;3.73;;
6203;SDS011;3135;42.602;23.468;2022-07-23T00:31:29;5.83;;;3.50;;
6203;SDS011;3135;42.602;23.468;2022-07-23T00:33:55;4.27;;;3.23;;
6203;SDS011;3135;42.602;23.468;2022-07-23T00:36:26;4.55;;;3.53;;
6203;SDS011;3135;42.602;23.468;2022-07-23T00:38:51;4.35;;;3.70;;
6203;SDS011;3135;42.602;23.468;2022-07-23T00:41:17;7.68;;;3.65;;
6203;SDS011;3135;42.602;23.468;2022-07-23T00:43:42;5.38;;;3.50;;
6203;SDS011;3135;42.602;23.468;2022-07-23T00:46:08;4.70;;;3.53;;
6203;SDS011;3135;42.602;23.468;2022-07-23T00:48:33;5.63;;;3.70;;
6203;SDS011;3135;42.602;23.468;2022-07-23T00:50:59;5.10;;;3.35;;
6203;SDS011;3135;42.602;23.468;2022-07-23T00:53:24;5.30;;;3.43;;
6203;SDS011;3135;42.602;23.468;2022-07-23T00:55:50;4.07;;;3.63;;
6203;SDS011;3135;42.602;23.468;2022-07-23T00:58:16;6.30;;;3.65;;
6203;SDS011;3135;42.602;23.468;2022-07-23T01:00:43;4.72;;;3.55;;
6203;SDS011;3135;42.602;23.468;2022-07-23T01:03:09;4.32;;;3.45;;
6203;SDS011;3135;42.602;23.468;2022-07-23T01:05:34;4.57;;;3.60;;
6203;SDS011;3135;42.602;23.468;2022-07-23T01:08:00;5.43;;;3.83;;
6203;SDS011;3135;42.602;23.468;2022-07-23T01:10:25;4.07;;;3.50;;
6203;SDS011;3135;42.602;23.468;2022-07-23T01:15:31;4.35;;;3.83;;
6203;SDS011;3135;42.602;23.468;2022-07-23T01:17:57;5.65;;;3.83;;
6203;SDS011;3135;42.602;23.468;2022-07-23T01:20:23;5.33;;;3.57;;
6203;SDS011;3135;42.602;23.468;2022-07-23T01:22:48;4.40;;;3.75;;
6203;SDS011;3135;42.602;23.468;2022-07-23T01:25:14;5.05;;;3.40;;
6203;SDS011;3135;42.602;23.468;2022-07-23T01:27:39;4.60;;;3.57;;
6203;SDS011;3135;42.602;23.468;2022-07-23T01:30:06;5.25;;;3.65;;
6203;SDS011;3135;42.602;23.468;2022-07-23T01:32:31;6.75;;;3.40;;
6203;SDS011;3135;42.602;23.468;2022-07-23T01:34:57;3.92;;;3.50;;
6203;SDS011;3135;42.602;23.468;2022-07-23T01:37:22;4.68;;;3.38;;
6203;SDS011;3135;42.602;23.468;2022-07-23T01:39:48;6.40;;;3.50;;
6203;SDS011;3135;42.602;23.468;2022-07-23T01:42:14;5.50;;;3.20;;
6203;SDS011;3135;42.602;23.468;2022-07-23T01:44:39;4.37;;;3.40;;
6203;SDS011;3135;42.602;23.468;2022-07-23T01:47:04;3.50;;;3.13;;
6203;SDS011;3135;42.602;23.468;2022-07-23T01:49:30;3.47;;;3.17;;
6203;SDS011;3135;42.602;23.468;2022-07-23T01:51:55;4.93;;;3.50;;
6203;SDS011;3135;42.602;23.468;2022-07-23T01:54:32;4.73;;;3.23;;
6203;SDS011;3135;42.602;23.468;2022-07-23T01:56:59;3.80;;;3.40;;
6203;SDS011;3135;42.602;23.468;2022-07-23T01:59:25;9.23;;;3.67;;
6203;SDS011;3135;42.602;23.468;2022-07-23T02:01:51;5.73;;;3.77;;
6203;SDS011;3135;42.602;23.468;2022-07-23T02:04:21;4.25;;;3.85;;
6203;SDS011;3135;42.602;23.468;2022-07-23T02:06:47;4.20;;;3.58;;
6203;SDS011;3135;42.602;23.468;2022-07-23T02:09:13;6.30;;;3.90;;
6203;SDS011;3135;42.602;23.468;2022-07-23T02:11:39;5.90;;;3.90;;
6203;SDS011;3135;42.602;23.468;2022-07-23T02:14:04;5.32;;;3.70;;
6203;SDS011;3135;42.602;23.468;2022-07-23T02:16:30;4.70;;;3.60;;
6203;SDS011;3135;42.602;23.468;2022-07-23T02:18:55;3.60;;;3.30;;
6203;SDS011;3135;42.602;23.468;2022-07-23T02:21:21;5.38;;;3.67;;
6203;SDS011;3135;42.602;23.468;2022-07-23T02:23:46;5.33;;;3.70;;
6203;SDS011;3135;42.602;23.468;2022-07-23T02:26:12;4.03;;;3.60;;
6203;SDS011;3135;42.602;23.468;2022-07-23T02:28:37;5.43;;;3.67;;
6203;SDS011;3135;42.602;23.468;2022-07-23T02:31:02;4.60;;;3.53;;
6203;SDS011;3135;42.602;23.468;2022-07-23T02:33:28;4.03;;;3.60;;
6203;SDS011;3135;42.602;23.468;2022-07-23T02:35:54;7.93;;;4.03;;
6203;SDS011;3135;42.602;23.468;2022-07-23T02:38:19;4.90;;;3.50;;
6203;SDS011;3135;42.602;23.468;2022-07-23T02:40:45;4.70;;;3.70;;
6203;SDS011;3135;42.602;23.468;2022-07-23T02:43:10;7.00;;;3.60;;
6203;SDS011;3135;42.602;23.468;2022-07-23T02:45:36;8.73;;;3.80;;
6203;SDS011;3135;42.602;23.468;2022-07-23T02:48:01;4.97;;;3.70;;
6203;SDS011;3135;42.602;23.468;2022-07-23T02:50:26;4.43;;;3.75;;
6203;SDS011;3135;42.602;23.468;2022-07-23T02:52:52;6.17;;;3.70;;
6203;SDS011;3135;42.602;23.468;2022-07-23T02:55:17;5.53;;;4.00;;
6203;SDS011;3135;42.602;23.468;2022-07-23T02:57:43;4.33;;;3.90;;
6203;SDS011;3135;42.602;23.468;2022-07-23T03:00:08;4.77;;;3.67;;
6203;SDS011;3135;42.602;23.468;2022-07-23T03:02:34;5.72;;;3.50;;
6203;SDS011;3135;42.602;23.468;2022-07-23T03:05:00;5.30;;;3.73;;
6203;SDS011;3135;42.602;23.468;2022-07-23T03:07:25;5.37;;;3.90;;
6203;SDS011;3135;42.602;23.468;2022-07-23T03:09:51;4.30;;;3.40;;
6203;SDS011;3135;42.602;23.468;2022-07-23T03:12:16;6.90;;;3.72;;
6203;SDS011;3135;42.602;23.468;2022-07-23T03:14:42;8.80;;;3.70;;
6203;SDS011;3135;42.602;23.468;2022-07-23T03:17:07;7.57;;;3.73;;
6203;SDS011;3135;42.602;23.468;2022-07-23T03:19:33;7.00;;;3.67;;
6203;SDS011;3135;42.602;23.468;2022-07-23T03:21:59;5.00;;;3.40;;
6203;SDS011;3135;42.602;23.468;2022-07-23T03:24:24;4.97;;;3.37;;
6203;SDS011;3135;42.602;23.468;2022-07-23T03:27:10;4.93;;;3.40;;
6203;SDS011;3135;42.602;23.468;2022-07-23T03:29:35;6.28;;;4.18;;
6203;SDS011;3135;42.602;23.468;2022-07-23T03:32:02;6.78;;;4.03;;
6203;SDS011;3135;42.602;23.468;2022-07-23T03:34:28;6.13;;;3.97;;
6203;SDS011;3135;42.602;23.468;2022-07-23T03:36:54;5.50;;;3.70;;
6203;SDS011;3135;42.602;23.468;2022-07-23T03:39:19;4.03;;;3.60;;
6203;SDS011;3135;42.602;23.468;2022-07-23T03:41:44;4.77;;;3.83;;
6203;SDS011;3135;42.602;23.468;2022-07-23T03:44:10;5.60;;;3.90;;
6203;SDS011;3135;42.602;23.468;2022-07-23T03:46:36;5.90;;;3.33;;
6203;SDS011;3135;42.602;23.468;2022-07-23T03:49:01;5.50;;;3.57;;
6203;SDS011;3135;42.602;23.468;2022-07-23T03:51:27;5.63;;;3.42;;
6203;SDS011;3135;42.602;23.468;2022-07-23T03:53:52;3.92;;;3.53;;
6203;SDS011;3135;42.602;23.468;2022-07-23T03:56:19;4.28;;;3.42;;
6203;SDS011;3135;42.602;23.468;2022-07-23T03:58:45;6.95;;;4.30;;
6203;SDS011;3135;42.602;23.468;2022-07-23T04:01:10;4.83;;;4.07;;
6203;SDS011;3135;42.602;23.468;2022-07-23T04:03:36;5.95;;;3.72;;
6203;SDS011;3135;42.602;23.468;2022-07-23T04:06:02;6.05;;;3.80;;
6203;SDS011;3135;42.602;23.468;2022-07-23T04:08:28;5.80;;;4.00;;
6203;SDS011;3135;42.602;23.468;2022-07-23T04:10:53;5.43;;;4.50;;
6203;SDS011;3135;42.602;23.468;2022-07-23T04:13:19;5.33;;;4.03;;
6203;SDS011;3135;42.602;23.468;2022-07-23T04:15:44;7.75;;;4.25;;
6203;SDS011;3135;42.602;23.468;2022-07-23T04:18:10;6.53;;;4.50;;
6203;SDS011;3135;42.602;23.468;2022-07-23T04:20:35;7.40;;;4.50;;
6203;SDS011;3135;42.602;23.468;2022-07-23T04:23:01;6.20;;;4.60;;
6203;SDS011;3135;42.602;23.468;2022-07-23T04:25:26;5.63;;;4.30;;
6203;SDS011;3135;42.602;23.468;2022-07-23T04:27:52;8.17;;;4.87;;
6203;SDS011;3135;42.602;23.468;2022-07-23T04:30:17;8.27;;;4.87;;
6203;SDS011;3135;42.602;23.468;2022-07-23T04:32:42;5.03;;;4.40;;
6203;SDS011;3135;42.602;23.468;2022-07-23T04:35:08;6.73;;;4.67;;
6203;SDS011;3135;42.602;23.468;2022-07-23T04:37:33;8.07;;;4.63;;
6203;SDS011;3135;42.602;23.468;2022-07-23T04:39:59;8.00;;;4.63;;
6203;SDS011;3135;42.602;23.468;2022-07-23T04:42:24;7.23;;;4.70;;
6203;SDS011;3135;42.602;23.468;2022-07-23T04:44:50;6.13;;;4.90;;
6203;SDS011;3135;42.602;23.468;2022-07-23T04:47:15;8.83;;;5.70;;
6203;SDS011;3135;42.602;23.468;2022-07-23T04:49:41;6.37;;;4.97;;
6203;SDS011;3135;42.602;23.468;2022-07-23T04:52:06;7.68;;;5.18;;
6203;SDS011;3135;42.602;23.468;2022-07-23T04:54:31;9.70;;;5.03;;
6203;SDS011;3135;42.602;23.468;2022-07-23T04:56:57;8.97;;;5.00;;
6203;SDS011;3135;42.602;23.468;2022-07-23T04:59:22;8.40;;;5.47;;
6203;SDS011;3135;42.602;23.468;2022-07-23T05:01:48;12.47;;;5.43;;
6203;SDS011;3135;42.602;23.468;2022-07-23T05:04:13;10.93;;;4.73;;
6203;SDS011;3135;42.602;23.468;2022-07-23T05:06:39;9.87;;;4.97;;
6203;SDS011;3135;42.602;23.468;2022-07-23T05:09:04;11.43;;;5.43;;
6203;SDS011;3135;42.602;23.468;2022-07-23T05:11:30;10.47;;;5.17;;
6203;SDS011;3135;42.602;23.468;2022-07-23T05:13:55;5.57;;;4.83;;
6203;SDS011;3135;42.602;23.468;2022-07-23T05:16:22;7.15;;;4.57;;
6203;SDS011;3135;42.602;23.468;2022-07-23T05:18:47;9.97;;;4.90;;
6203;SDS011;3135;42.602;23.468;2022-07-23T05:21:13;7.07;;;4.70;;
6203;SDS011;3135;42.602;23.468;2022-07-23T05:23:38;8.73;;;4.70;;
6203;SDS011;3135;42.602;23.468;2022-07-23T05:26:03;6.80;;;5.27;;
6203;SDS011;3135;42.602;23.468;2022-07-23T05:28:29;8.77;;;5.30;;
6203;SDS011;3135;42.602;23.468;2022-07-23T05:30:54;10.47;;;5.30;;
6203;SDS011;3135;42.602;23.468;2022-07-23T05:33:20;7.00;;;5.33;;
6203;SDS011;3135;42.602;23.468;2022-07-23T05:35:46;10.13;;;5.13;;
6203;SDS011;3135;42.602;23.468;2022-07-23T05:38:11;5.73;;;5.13;;
6203;SDS011;3135;42.602;23.468;2022-07-23T05:40:37;10.00;;;5.33;;
6203;SDS011;3135;42.602;23.468;2022-07-23T05:43:02;9.87;;;5.53;;
6203;SDS011;3135;42.602;23.468;2022-07-23T05:45:27;10.03;;;5.53;;
6203;SDS011;3135;42.602;23.468;2022-07-23T05:47:53;12.32;;;5.40;;
6203;SDS011;3135;42.602;23.468;2022-07-23T05:50:18;8.97;;;5.33;;
6203;SDS011;3135;42.602;23.468;2022-07-23T05:52:44;8.43;;;5.27;;
6203;SDS011;3135;42.602;23.468;2022-07-23T05:55:10;9.57;;;5.57;;
6203;SDS011;3135;42.602;23.468;2022-07-23T05:57:37;8.02;;;5.75;;
6203;SDS011;3135;42.602;23.468;2022-07-23T06:00:03;7.23;;;5.20;;
6203;SDS011;3135;42.602;23.468;2022-07-23T06:02:30;8.95;;;5.40;;
6203;SDS011;3135;42.602;23.468;2022-07-23T06:04:55;9.13;;;5.10;;
6203;SDS011;3135;42.602;23.468;2022-07-23T06:07:21;9.67;;;5.00;;
6203;SDS011;3135;42.602;23.468;2022-07-23T06:09:46;7.68;;;5.10;;
6203;SDS011;3135;42.602;23.468;2022-07-23T06:12:14;7.50;;;5.03;;
6203;SDS011;3135;42.602;23.468;2022-07-23T06:14:40;10.67;;;5.43;;
6203;SDS011;3135;42.602;23.468;2022-07-23T06:17:05;9.93;;;5.17;;
6203;SDS011;3135;42.602;23.468;2022-07-23T06:19:31;7.43;;;5.70;;
6203;SDS011;3135;42.602;23.468;2022-07-23T06:21:56;6.27;;;5.63;;
6203;SDS011;3135;42.602;23.468;2022-07-23T06:24:21;9.10;;;5.20;;
6203;SDS011;3135;42.602;23.468;2022-07-23T06:26:47;9.33;;;5.30;;
6203;SDS011;3135;42.602;23.468;2022-07-23T06:29:12;7.60;;;5.73;;
6203;SDS011;3135;42.602;23.468;2022-07-23T06:31:38;11.40;;;5.50;;
6203;SDS011;3135;42.602;23.468;2022-07-23T06:34:03;9.30;;;5.57;;
6203;SDS011;3135;42.602;23.468;2022-07-23T06:36:29;11.43;;;5.70;;
6203;SDS011;3135;42.602;23.468;2022-07-23T06:38:54;8.57;;;5.20;;
6203;SDS011;3135;42.602;23.468;2022-07-23T06:41:20;7.87;;;5.77;;
6203;SDS011;3135;42.602;23.468;2022-07-23T06:43:45;7.00;;;5.75;;
6203;SDS011;3135;42.602;23.468;2022-07-23T06:46:10;12.60;;;6.03;;
6203;SDS011;3135;42.602;23.468;2022-07-23T06:48:36;8.07;;;5.82;;
6203;SDS011;3135;42.602;23.468;2022-07-23T06:51:02;6.87;;;5.47;;
6203;SDS011;3135;42.602;23.468;2022-07-23T06:53:28;8.20;;;5.80;;
6203;SDS011;3135;42.602;23.468;2022-07-23T06:55:53;8.90;;;5.38;;
6203;SDS011;3135;42.602;23.468;2022-07-23T06:58:19;9.90;;;5.77;;
6203;SDS011;3135;42.602;23.468;2022-07-23T07:00:45;9.15;;;5.70;;
6203;SDS011;3135;42.602;23.468;2022-07-23T07:03:11;8.80;;;5.55;;
6203;SDS011;3135;42.602;23.468;2022-07-23T07:05:36;7.43;;;5.13;;
6203;SDS011;3135;42.602;23.468;2022-07-23T07:08:02;6.90;;;5.47;;
6203;SDS011;3135;42.602;23.468;2022-07-23T07:10:27;7.57;;;5.63;;
6203;SDS011;3135;42.602;23.468;2022-07-23T07:12:53;6.57;;;5.80;;
6203;SDS011;3135;42.602;23.468;2022-07-23T07:15:18;8.53;;;5.57;;
6203;SDS011;3135;42.602;23.468;2022-07-23T07:17:44;9.38;;;6.03;;
6203;SDS011;3135;42.602;23.468;2022-07-23T07:20:11;9.73;;;6.20;;
6203;SDS011;3135;42.602;23.468;2022-07-23T07:22:36;8.83;;;5.90;;
6203;SDS011;3135;42.602;23.468;2022-07-23T07:25:02;8.43;;;6.00;;
6203;SDS011;3135;42.602;23.468;2022-07-23T07:27:28;9.30;;;6.00;;
6203;SDS011;3135;42.602;23.468;2022-07-23T07:29:53;11.30;;;5.80;;
6203;SDS011;3135;42.602;23.468;2022-07-23T07:32:19;8.87;;;5.43;;
6203;SDS011;3135;42.602;23.468;2022-07-23T07:34:44;10.67;;;5.63;;
6203;SDS011;3135;42.602;23.468;2022-07-23T07:37:09;11.50;;;5.67;;
6203;SDS011;3135;42.602;23.468;2022-07-23T07:39:35;6.50;;;5.27;;
6203;SDS011;3135;42.602;23.468;2022-07-23T07:42:00;9.13;;;5.43;;
6203;SDS011;3135;42.602;23.468;2022-07-23T07:44:26;9.00;;;5.60;;
6203;SDS011;3135;42.602;23.468;2022-07-23T07:46:51;7.10;;;5.10;;
6203;SDS011;3135;42.602;23.468;2022-07-23T07:49:17;11.48;;;5.47;;
6203;SDS011;3135;42.602;23.468;2022-07-23T07:51:44;6.25;;;5.35;;
6203;SDS011;3135;42.602;23.468;2022-07-23T07:54:10;7.05;;;5.20;;
6203;SDS011;3135;42.602;23.468;2022-07-23T07:56:36;72.63;;;8.18;;
6203;SDS011;3135;42.602;23.468;2022-07-23T07:59:02;8.30;;;5.57;;
6203;SDS011;3135;42.602;23.468;2022-07-23T08:01:27;8.37;;;5.53;;
6203;SDS011;3135;42.602;23.468;2022-07-23T08:03:53;8.77;;;5.60;;
6203;SDS011;3135;42.602;23.468;2022-07-23T08:06:18;7.87;;;5.63;;
6203;SDS011;3135;42.602;23.468;2022-07-23T08:08:43;5.60;;;5.07;;
6203;SDS011;3135;42.602;23.468;2022-07-23T08:11:09;9.23;;;5.60;;
6203;SDS011;3135;42.602;23.468;2022-07-23T08:13:35;7.57;;;5.18;;
6203;SDS011;3135;42.602;23.468;2022-07-23T08:16:00;9.97;;;5.63;;
6203;SDS011;3135;42.602;23.468;2022-07-23T08:18:26;7.95;;;5.40;;
6203;SDS011;3135;42.602;23.468;2022-07-23T08:20:51;8.27;;;5.33;;
6203;SDS011;3135;42.602;23.468;2022-07-23T08:23:17;8.40;;;5.40;;
6203;SDS011;3135;42.602;23.468;2022-07-23T08:25:44;6.65;;;4.85;;
6203;SDS011;3135;42.602;23.468;2022-07-23T08:28:12;8.48;;;4.90;;
6203;SDS011;3135;42.602;23.468;2022-07-23T08:30:38;33.78;;;7.32;;
6203;SDS011;3135;42.602;23.468;2022-07-23T08:33:09;8.63;;;5.15;;
6203;SDS011;3135;42.602;23.468;2022-07-23T08:35:43;10.35;;;5.40;;
6203;SDS011;3135;42.602;23.468;2022-07-23T08:38:13;10.48;;;5.13;;
6203;SDS011;3135;42.602;23.468;2022-07-23T08:40:41;5.55;;;4.90;;
6203;SDS011;3135;42.602;23.468;2022-07-23T08:43:17;8.88;;;5.30;;
6203;SDS011;3135;42.602;23.468;2022-07-23T08:45:50;7.88;;;5.25;;
6203;SDS011;3135;42.602;23.468;2022-07-23T08:48:20;9.90;;;5.30;;
6203;SDS011;3135;42.602;23.468;2022-07-23T08:50:50;7.43;;;4.50;;
6203;SDS011;3135;42.602;23.468;2022-07-23T08:53:19;7.43;;;5.00;;
6203;SDS011;3135;42.602;23.468;2022-07-23T08:55:46;7.15;;;5.00;;
6203;SDS011;3135;42.602;23.468;2022-07-23T08:58:15;9.30;;;5.40;;
6203;SDS011;3135;42.602;23.468;2022-07-23T09:00:41;5.93;;;4.90;;
6203;SDS011;3135;42.602;23.468;2022-07-23T09:03:07;6.17;;;4.60;;
6203;SDS011;3135;42.602;23.468;2022-07-23T09:06:00;7.33;;;4.73;;
6203;SDS011;3135;42.602;23.468;2022-07-23T09:08:41;7.80;;;4.93;;
6203;SDS011;3135;42.602;23.468;2022-07-23T09:11:09;7.82;;;4.82;;
6203;SDS011;3135;42.602;23.468;2022-07-23T09:16:15;10.57;;;4.70;;
6203;SDS011;3135;42.602;23.468;2022-07-23T09:18:46;8.18;;;4.63;;
6203;SDS011;3135;42.602;23.468;2022-07-23T09:23:58;7.80;;;4.68;;
6203;SDS011;3135;42.602;23.468;2022-07-23T09:26:35;8.48;;;4.85;;
6203;SDS011;3135;42.602;23.468;2022-07-23T09:29:20;5.97;;;4.45;;
6203;SDS011;3135;42.602;23.468;2022-07-23T09:31:54;6.38;;;4.85;;
6203;SDS011;3135;42.602;23.468;2022-07-23T09:34:22;7.78;;;5.07;;
6203;SDS011;3135;42.602;23.468;2022-07-23T09:36:50;7.90;;;5.03;;
6203;SDS011;3135;42.602;23.468;2022-07-23T09:39:22;7.68;;;4.93;;
6203;SDS011;3135;42.602;23.468;2022-07-23T09:41:51;5.78;;;5.10;;
6203;SDS011;3135;42.602;23.468;2022-07-23T09:44:18;7.10;;;4.83;;
6203;SDS011;3135;42.602;23.468;2022-07-23T09:46:45;8.02;;;5.25;;
6203;SDS011;3135;42.602;23.468;2022-07-23T09:49:22;6.60;;;4.93;;
6203;SDS011;3135;42.602;23.468;2022-07-23T09:51:55;7.20;;;5.10;;
6203;SDS011;3135;42.602;23.468;2022-07-23T09:54:38;13.65;;;5.22;;
6203;SDS011;3135;42.602;23.468;2022-07-23T09:57:06;7.87;;;5.10;;
6203;SDS011;3135;42.602;23.468;2022-07-23T09:59:40;7.90;;;4.45;;
6203;SDS011;3135;42.602;23.468;2022-07-23T10:02:08;8.25;;;4.93;;
6203;SDS011;3135;42.602;23.468;2022-07-23T10:04:35;7.32;;;5.05;;
6203;SDS011;3135;42.602;23.468;2022-07-23T10:07:02;6.83;;;4.90;;
6203;SDS011;3135;42.602;23.468;2022-07-23T10:09:33;8.52;;;4.50;;
6203;SDS011;3135;42.602;23.468;2022-07-23T10:12:01;5.97;;;4.13;;
6203;SDS011;3135;42.602;23.468;2022-07-23T10:14:34;7.78;;;4.70;;
6203;SDS011;3135;42.602;23.468;2022-07-23T10:17:01;7.55;;;4.60;;
6203;SDS011;3135;42.602;23.468;2022-07-23T10:19:27;6.18;;;4.50;;
6203;SDS011;3135;42.602;23.468;2022-07-23T10:22:00;8.10;;;4.90;;
6203;SDS011;3135;42.602;23.468;2022-07-23T10:32:20;9.98;;;4.55;;
6203;SDS011;3135;42.602;23.468;2022-07-23T10:35:29;8.45;;;4.88;;
6203;SDS011;3135;42.602;23.468;2022-07-23T10:38:14;6.05;;;4.50;;
6203;SDS011;3135;42.602;23.468;2022-07-23T10:40:54;8.50;;;4.70;;
6203;SDS011;3135;42.602;23.468;2022-07-23T10:43:21;11.20;;;4.57;;
6203;SDS011;3135;42.602;23.468;2022-07-23T10:45:46;7.38;;;4.65;;
6203;SDS011;3135;42.602;23.468;2022-07-23T10:48:16;5.93;;;4.60;;
6203;SDS011;3135;42.602;23.468;2022-07-23T10:50:43;9.95;;;5.00;;
6203;SDS011;3135;42.602;23.468;2022-07-23T10:53:28;6.93;;;4.40;;
6203;SDS011;3135;42.602;23.468;2022-07-23T10:59:19;8.25;;;4.55;;
6203;SDS011;3135;42.602;23.468;2022-07-23T11:01:45;9.18;;;4.38;;
6203;SDS011;3135;42.602;23.468;2022-07-23T11:04:11;7.67;;;4.27;;
6203;SDS011;3135;42.602;23.468;2022-07-23T11:09:28;7.53;;;4.32;;
6203;SDS011;3135;42.602;23.468;2022-07-23T11:17:24;9.25;;;3.42;;
6203;SDS011;3135;42.602;23.468;2022-07-23T11:22:34;9.80;;;3.88;;
6203;SDS011;3135;42.602;23.468;2022-07-23T11:25:00;7.50;;;3.70;;
6203;SDS011;3135;42.602;23.468;2022-07-23T11:27:38;13.75;;;3.20;;
6203;SDS011;3135;42.602;23.468;2022-07-23T11:30:10;10.10;;;3.92;;
6203;SDS011;3135;42.602;23.468;2022-07-23T11:32:51;10.77;;;3.97;;
6203;SDS011;3135;42.602;23.468;2022-07-23T11:35:18;13.30;;;4.32;;
6203;SDS011;3135;42.602;23.468;2022-07-23T11:37:47;11.67;;;3.60;;
6203;SDS011;3135;42.602;23.468;2022-07-23T11:40:14;9.75;;;3.20;;
6203;SDS011;3135;42.602;23.468;2022-07-23T11:45:20;11.07;;;3.55;;
6203;SDS011;3135;42.602;23.468;2022-07-23T11:47:47;8.88;;;3.53;;
6203;SDS011;3135;42.602;23.468;2022-07-23T11:50:12;9.40;;;4.10;;
6203;SDS011;3135;42.602;23.468;2022-07-23T11:52:38;6.30;;;4.10;;
6203;SDS011;3135;42.602;23.468;2022-07-23T11:55:08;8.55;;;4.20;;
6203;SDS011;3135;42.602;23.468;2022-07-23T11:57:37;12.90;;;4.43;;
6203;SDS011;3135;42.602;23.468;2022-07-23T12:00:40;9.95;;;4.43;;
6203;SDS011;3135;42.602;23.468;2022-07-23T12:02:58;9.27;;;3.97;;
6203;SDS011;3135;42.602;23.468;2022-07-23T12:05:33;9.52;;;4.15;;
6203;SDS011;3135;42.602;23.468;2022-07-23T12:08:02;8.57;;;3.92;;
6203;SDS011;3135;42.602;23.468;2022-07-23T12:10:34;7.95;;;3.53;;
6203;SDS011;3135;42.602;23.468;2022-07-23T12:13:11;8.87;;;3.53;;
6203;SDS011;3135;42.602;23.468;2022-07-23T12:18:07;9.97;;;3.63;;
6203;SDS011;3135;42.602;23.468;2022-07-23T12:21:06;7.18;;;3.50;;
6203;SDS011;3135;42.602;23.468;2022-07-23T12:23:28;8.25;;;3.95;;
6203;SDS011;3135;42.602;23.468;2022-07-23T12:25:54;7.40;;;3.63;;
6203;SDS011;3135;42.602;23.468;2022-07-23T12:28:30;12.38;;;3.78;;
6203;SDS011;3135;42.602;23.468;2022-07-23T12:30:57;8.30;;;3.47;;
6203;SDS011;3135;42.602;23.468;2022-07-23T12:33:27;12.50;;;3.78;;
6203;SDS011;3135;42.602;23.468;2022-07-23T12:35:55;15.18;;;3.70;;
6203;SDS011;3135;42.602;23.468;2022-07-23T12:38:23;9.50;;;3.70;;
6203;SDS011;3135;42.602;23.468;2022-07-23T12:40:53;11.65;;;3.50;;
6203;SDS011;3135;42.602;23.468;2022-07-23T12:43:24;9.03;;;3.67;;
6203;SDS011;3135;42.602;23.468;2022-07-23T12:46:07;9.40;;;3.97;;
6203;SDS011;3135;42.602;23.468;2022-07-23T12:48:34;7.88;;;4.13;;
6203;SDS011;3135;42.602;23.468;2022-07-23T12:51:02;8.60;;;4.00;;
6203;SDS011;3135;42.602;23.468;2022-07-23T12:53:37;10.27;;;4.15;;
6203;SDS011;3135;42.602;23.468;2022-07-23T12:58:45;6.75;;;3.55;;
6203;SDS011;3135;42.602;23.468;2022-07-23T13:06:21;8.45;;;3.50;;
6203;SDS011;3135;42.602;23.468;2022-07-23T13:08:47;10.48;;;3.63;;
6203;SDS011;3135;42.602;23.468;2022-07-23T13:11:12;8.07;;;3.73;;
6203;SDS011;3135;42.602;23.468;2022-07-23T13:13:38;9.03;;;3.60;;
6203;SDS011;3135;42.602;23.468;2022-07-23T13:16:04;8.40;;;3.90;;
6203;SDS011;3135;42.602;23.468;2022-07-23T13:18:29;10.37;;;3.83;;
6203;SDS011;3135;42.602;23.468;2022-07-23T13:20:56;10.13;;;3.72;;
6203;SDS011;3135;42.602;23.468;2022-07-23T13:23:22;10.02;;;3.83;;
6203;SDS011;3135;42.602;23.468;2022-07-23T13:25:48;7.70;;;3.85;;
6203;SDS011;3135;42.602;23.468;2022-07-23T13:28:15;8.13;;;3.50;;
6203;SDS011;3135;42.602;23.468;2022-07-23T13:30:41;9.10;;;4.20;;
6203;SDS011;3135;42.602;23.468;2022-07-23T13:33:07;8.75;;;4.03;;
6203;SDS011;3135;42.602;23.468;2022-07-23T13:35:33;9.17;;;4.20;;
6203;SDS011;3135;42.602;23.468;2022-07-23T13:38:00;10.90;;;4.80;;
6203;SDS011;3135;42.602;23.468;2022-07-23T13:40:26;10.95;;;4.88;;
6203;SDS011;3135;42.602;23.468;2022-07-23T13:42:51;6.57;;;3.80;;
6203;SDS011;3135;42.602;23.468;2022-07-23T13:45:17;8.93;;;3.90;;
6203;SDS011;3135;42.602;23.468;2022-07-23T13:47:42;9.00;;;4.25;;
6203;SDS011;3135;42.602;23.468;2022-07-23T13:50:08;11.27;;;4.07;;
6203;SDS011;3135;42.602;23.468;2022-07-23T13:52:33;8.65;;;4.38;;
6203;SDS011;3135;42.602;23.468;2022-07-23T13:55:03;9.23;;;4.50;;
6203;SDS011;3135;42.602;23.468;2022-07-23T13:57:30;8.40;;;4.40;;
6203;SDS011;3135;42.602;23.468;2022-07-23T13:59:56;8.35;;;4.30;;
6203;SDS011;3135;42.602;23.468;2022-07-23T14:02:22;9.77;;;4.00;;
6203;SDS011;3135;42.602;23.468;2022-07-23T14:04:47;9.50;;;4.10;;
6203;SDS011;3135;42.602;23.468;2022-07-23T14:07:14;9.20;;;4.70;;
6203;SDS011;3135;42.602;23.468;2022-07-23T14:09:39;8.73;;;4.40;;
6203;SDS011;3135;42.602;23.468;2022-07-23T14:12:05;8.83;;;4.63;;
6203;SDS011;3135;42.602;23.468;2022-07-23T14:14:30;10.57;;;4.45;;
6203;SDS011;3135;42.602;23.468;2022-07-23T14:16:56;10.50;;;4.17;;
6203;SDS011;3135;42.602;23.468;2022-07-23T14:19:22;7.10;;;4.20;;
6203;SDS011;3135;42.602;23.468;2022-07-23T14:21:48;9.02;;;4.13;;
6203;SDS011;3135;42.602;23.468;2022-07-23T14:24:14;9.63;;;3.90;;
6203;SDS011;3135;42.602;23.468;2022-07-23T14:26:40;8.00;;;4.47;;
6203;SDS011;3135;42.602;23.468;2022-07-23T14:29:06;8.55;;;4.65;;
6203;SDS011;3135;42.602;23.468;2022-07-23T14:31:32;7.13;;;4.13;;
6203;SDS011;3135;42.602;23.468;2022-07-23T14:33:57;9.93;;;4.17;;
6203;SDS011;3135;42.602;23.468;2022-07-23T14:36:24;7.30;;;4.38;;
6203;SDS011;3135;42.602;23.468;2022-07-23T14:38:49;9.03;;;4.50;;
6203;SDS011;3135;42.602;23.468;2022-07-23T14:41:15;7.97;;;4.10;;
6203;SDS011;3135;42.602;23.468;2022-07-23T14:43:40;4.77;;;3.97;;
6203;SDS011;3135;42.602;23.468;2022-07-23T14:46:06;10.63;;;4.50;;
6203;SDS011;3135;42.602;23.468;2022-07-23T14:48:32;9.37;;;4.63;;
6203;SDS011;3135;42.602;23.468;2022-07-23T14:50:57;8.07;;;4.50;;
6203;SDS011;3135;42.602;23.468;2022-07-23T14:53:23;8.50;;;4.30;;
6203;SDS011;3135;42.602;23.468;2022-07-23T14:55:48;8.20;;;4.80;;
6203;SDS011;3135;42.602;23.468;2022-07-23T14:58:14;9.90;;;4.70;;
6203;SDS011;3135;42.602;23.468;2022-07-23T15:00:39;7.35;;;4.50;;
6203;SDS011;3135;42.602;23.468;2022-07-23T15:03:05;9.33;;;4.67;;
6203;SDS011;3135;42.602;23.468;2022-07-23T15:05:30;7.97;;;4.40;;
6203;SDS011;3135;42.602;23.468;2022-07-23T15:07:56;7.68;;;4.63;;
6203;SDS011;3135;42.602;23.468;2022-07-23T15:10:21;9.20;;;4.43;;
6203;SDS011;3135;42.602;23.468;2022-07-23T15:12:46;7.83;;;4.57;;
6203;SDS011;3135;42.602;23.468;2022-07-23T15:15:12;8.70;;;4.50;;
6203;SDS011;3135;42.602;23.468;2022-07-23T15:17:38;8.55;;;4.38;;
6203;SDS011;3135;42.602;23.468;2022-07-23T15:20:04;9.38;;;4.50;;
6203;SDS011;3135;42.602;23.468;2022-07-23T15:22:31;9.27;;;4.15;;
6203;SDS011;3135;42.602;23.468;2022-07-23T15:24:56;7.53;;;4.40;;
6203;SDS011;3135;42.602;23.468;2022-07-23T15:27:21;10.80;;;5.10;;
6203;SDS011;3135;42.602;23.468;2022-07-23T15:29:47;7.30;;;4.90;;
6203;SDS011;3135;42.602;23.468;2022-07-23T15:32:12;10.50;;;5.38;;
6203;SDS011;3135;42.602;23.468;2022-07-23T15:34:38;9.17;;;4.77;;
6203;SDS011;3135;42.602;23.468;2022-07-23T15:37:04;7.90;;;5.05;;
6203;SDS011;3135;42.602;23.468;2022-07-23T15:39:32;7.72;;;4.47;;
6203;SDS011;3135;42.602;23.468;2022-07-23T15:42:02;7.80;;;4.30;;
6203;SDS011;3135;42.602;23.468;2022-07-23T15:44:28;7.57;;;4.25;;